Time;durP1;ratioP1;P1;durP2;ratioP2;P2;SDS_P1;SDS_P2;PMS_P1;PMS_P2;Temp;Humidity;BMP_temperature;BMP_pressure;BME280_temperature;BME280_humidity;BME280_pressure;Samples;Min_cycle;Max_cycle;Signal;HPM_P1;HPM_P2
2023/06/17 00:00:41;;;;;;;16.00;12.07;;;;;;;;;;2048450;29;20023;-91
2023/06/17 00:01:42;;;;;;;17.70;12.52;;;;;;;;;;2048199;28;20424;-91
2023/06/17 00:02:42;;;;;;;15.55;12.52;;;;;;;;;;2047940;29;20067;-91
2023/06/17 00:03:43;;;;;;;17.90;12.52;;;;;;;;;;2047900;29;20423;-90
2023/06/17 00:04:44;;;;;;;16.63;11.63;;;;;;;;;;2047645;28;20031;-90
2023/06/17 00:05:44;;;;;;;17.38;12.02;;;;;;;;;;2055831;28;20128;-90
2023/06/17 00:06:45;;;;;;;16.85;13.32;;;;;;;;;;2056127;28;20070;-91
2023/06/17 00:07:45;;;;;;;15.30;11.77;;;;;;;;;;2055801;28;20037;-90
2023/06/17 00:08:46;;;;;;;15.75;12.10;;;;;;;;;;2055679;28;20038;-90
2023/06/17 00:09:46;;;;;;;17.90;12.80;;;;;;;;;;2056569;28;20031;-91
2023/06/17 00:10:47;;;;;;;20.48;13.48;;;;;;;;;;2056416;28;20037;-90
2023/06/17 00:11:48;;;;;;;16.80;12.82;;;;;;;;;;2055960;28;20456;-90
2023/06/17 00:12:48;;;;;;;16.73;13.02;;;;;;;;;;2060076;28;20019;-91
2023/06/17 00:13:50;;;;;;;15.50;12.18;;;;;;;;;;2064488;28;20010;-89
2023/06/17 00:14:51;;;;;;;15.65;11.95;;;;;;;;;;2051023;28;20173;-91
2023/06/17 00:15:56;;;;;;;15.68;11.93;;;;;;;;;;2055993;28;20034;-91
2023/06/17 00:16:59;;;;;;;17.00;11.82;;;;;;;;;;2055718;28;20140;-92
2023/06/17 00:18:03;;;;;;;17.42;12.63;;;;;;;;;;2048101;28;20027;-92
2023/06/17 00:19:04;;;;;;;16.90;12.57;;;;;;;;;;2048533;28;20118;-92
2023/06/17 00:20:11;;;;;;;20.70;12.90;;;;;;;;;;2056386;28;20085;-92
2023/06/17 00:21:11;;;;;;;16.33;12.50;;;;;;;;;;2059470;28;20034;-91
2023/06/17 00:22:12;;;;;;;15.88;11.48;;;;;;;;;;2056657;28;20139;-90
2023/06/17 00:23:12;;;;;;;16.05;12.65;;;;;;;;;;2055973;28;20030;-92
2023/06/17 00:24:13;;;;;;;16.80;11.63;;;;;;;;;;2056124;28;20057;-92
2023/06/17 00:25:19;;;;;;;13.63;11.60;;;;;;;;;;2056503;28;20030;-91
2023/06/17 00:26:19;;;;;;;15.20;11.90;;;;;;;;;;2059300;28;20023;-92
2023/06/17 00:27:20;;;;;;;21.75;11.40;;;;;;;;;;2056688;28;20034;-91
2023/06/17 00:28:20;;;;;;;16.35;11.48;;;;;;;;;;2055650;28;20090;-92
2023/06/17 00:29:23;;;;;;;17.05;12.32;;;;;;;;;;2055758;28;20093;-91
2023/06/17 00:30:26;;;;;;;18.73;11.98;;;;;;;;;;2055828;28;20030;-91
2023/06/17 00:31:26;;;;;;;20.13;12.48;;;;;;;;;;2047934;28;20110;-92
2023/06/17 00:32:28;;;;;;;18.17;10.90;;;;;;;;;;2055916;28;20022;-92
2023/06/17 00:33:28;;;;;;;15.18;11.88;;;;;;;;;;2056827;28;20019;-91
2023/06/17 00:34:29;;;;;;;15.88;11.82;;;;;;;;;;2055693;28;20042;-92
2023/06/17 00:35:29;;;;;;;15.75;12.40;;;;;;;;;;2055932;28;20018;-92
2023/06/17 00:36:30;;;;;;;14.70;11.82;;;;;;;;;;2056003;28;20047;-93
2023/06/17 00:37:30;;;;;;;17.25;12.80;;;;;;;;;;2056516;28;20157;-93
2023/06/17 00:38:31;;;;;;;19.40;12.05;;;;;;;;;;2056853;28;20122;-92
2023/06/17 00:39:31;;;;;;;16.77;11.70;;;;;;;;;;2056844;28;20241;-93
2023/06/17 00:40:32;;;;;;;16.40;12.48;;;;;;;;;;2056521;28;20108;-92
2023/06/17 00:41:36;;;;;;;18.58;12.13;;;;;;;;;;1757543;28;10002587;-92
2023/06/17 00:42:37;;;;;;;16.02;11.63;;;;;;;;;;2055886;28;20295;-91
2023/06/17 00:43:40;;;;;;;17.80;11.85;;;;;;;;;;2055838;28;20045;-92
2023/06/17 00:44:40;;;;;;;16.08;12.77;;;;;;;;;;2058171;28;20051;-96
2023/06/17 00:45:41;;;;;;;17.33;12.18;;;;;;;;;;2041447;29;20098;-93
2023/06/17 00:46:46;;;;;;;16.65;12.90;;;;;;;;;;2047795;28;20062;-93
2023/06/17 00:47:47;;;;;;;16.48;12.00;;;;;;;;;;2059305;28;20518;-92
2023/06/17 00:48:47;;;;;;;15.73;12.48;;;;;;;;;;2056183;28;20102;-91
2023/06/17 00:49:48;;;;;;;17.08;12.80;;;;;;;;;;2047852;29;20615;-92
2023/06/17 00:50:49;;;;;;;17.55;12.60;;;;;;;;;;2039962;29;20099;-93
2023/06/17 00:51:50;;;;;;;19.98;12.75;;;;;;;;;;2047804;28;20054;-92
2023/06/17 00:52:54;;;;;;;19.08;12.00;;;;;;;;;;2055798;28;20063;-91
2023/06/17 00:53:56;;;;;;;20.95;12.80;;;;;;;;;;2055636;28;20031;-92
2023/06/17 00:54:57;;;;;;;20.85;13.25;;;;;;;;;;2047665;28;20023;-93
2023/06/17 00:55:58;;;;;;;16.98;12.10;;;;;;;;;;2055541;28;20023;-94
2023/06/17 00:57:01;;;;;;;17.65;12.43;;;;;;;;;;2055580;28;20027;-93
2023/06/17 00:58:04;;;;;;;20.08;13.43;;;;;;;;;;2048239;28;20023;-93
2023/06/17 00:59:04;;;;;;;22.48;13.43;;;;;;;;;;2056127;28;20027;-93
2023/06/17 01:00:09;;;;;;;19.20;12.70;;;;;;;;;;2056023;28;20117;-92
2023/06/17 01:01:10;;;;;;;18.67;13.43;;;;;;;;;;2054709;28;20058;-91
2023/06/17 01:02:15;;;;;;;18.88;13.07;;;;;;;;;;2066194;28;20014;-92
2023/06/17 01:03:17;;;;;;;18.65;13.15;;;;;;;;;;2056098;28;20101;-91
2023/06/17 01:04:18;;;;;;;17.67;13.02;;;;;;;;;;2055738;28;20463;-92
2023/06/17 01:05:18;;;;;;;18.05;12.55;;;;;;;;;;2047671;28;20038;-92
2023/06/17 01:06:33;;;;;;;16.52;13.18;;;;;;;;;;2055954;28;20037;-92
2023/06/17 01:08:08;;;;;;;19.23;13.23;;;;;;;;;;2055964;28;20050;-92
2023/06/17 01:09:15;;;;;;;18.35;12.60;;;;;;;;;;2056202;28;20025;-92
2023/06/17 01:10:30;;;;;;;19.48;13.18;;;;;;;;;;2055276;28;20022;-91
2023/06/17 01:11:33;;;;;;;18.55;12.98;;;;;;;;;;2049260;28;20031;-92
2023/06/17 01:12:34;;;;;;;19.40;13.75;;;;;;;;;;2055463;28;20034;-92
2023/06/17 01:13:35;;;;;;;22.77;13.18;;;;;;;;;;2055532;28;20141;-92
2023/06/17 01:14:40;;;;;;;19.23;14.27;;;;;;;;;;2055426;28;20082;-91
2023/06/17 01:15:41;;;;;;;20.55;13.02;;;;;;;;;;2055379;28;20066;-91
2023/06/17 01:16:42;;;;;;;22.30;12.43;;;;;;;;;;2055654;28;20019;-92
2023/06/17 01:17:46;;;;;;;20.20;13.10;;;;;;;;;;2056098;28;20361;-92
2023/06/17 01:18:48;;;;;;;16.65;12.77;;;;;;;;;;2056357;28;20220;-93
2023/06/17 01:19:49;;;;;;;17.73;11.82;;;;;;;;;;2056169;28;20019;-92
2023/06/17 01:20:53;;;;;;;17.85;12.52;;;;;;;;;;2056122;28;20042;-92
2023/06/17 01:21:55;;;;;;;17.33;12.25;;;;;;;;;;2055369;28;20034;-92
2023/06/17 01:22:56;;;;;;;21.20;13.25;;;;;;;;;;2047318;28;20396;-92
2023/06/17 01:24:00;;;;;;;20.67;11.90;;;;;;;;;;1707017;28;10113060;-93
2023/06/17 01:25:02;;;;;;;18.60;12.13;;;;;;;;;;2055849;28;20054;-92
2023/06/17 01:26:02;;;;;;;18.27;11.90;;;;;;;;;;2056005;28;20037;-91
2023/06/17 01:27:03;;;;;;;17.35;11.20;;;;;;;;;;2055928;28;20211;-91
2023/06/17 01:28:15;;;;;;;17.60;11.23;;;;;;;;;;2055466;28;20108;-92
2023/06/17 01:29:16;;;;;;;15.52;11.15;;;;;;;;;;2055647;28;20026;-92
2023/06/17 01:30:17;;;;;;;16.58;11.23;;;;;;;;;;2055583;28;20448;-93
2023/06/17 01:31:18;;;;;;;14.23;11.23;;;;;;;;;;2055552;28;20408;-92
2023/06/17 01:32:18;;;;;;;16.80;11.20;;;;;;;;;;2056396;28;20030;-93
2023/06/17 01:33:20;;;;;;;17.45;12.07;;;;;;;;;;2055675;28;20050;-93
2023/06/17 01:34:29;;;;;;;18.35;11.00;;;;;;;;;;2047451;28;20030;-92
2023/06/17 01:35:38;;;;;;;15.40;11.07;;;;;;;;;;2055722;28;20026;-92
2023/06/17 01:36:39;;;;;;;16.77;10.95;;;;;;;;;;2055461;28;20081;-92
2023/06/17 01:37:47;;;;;;;16.10;11.45;;;;;;;;;;2055927;28;20093;-93
2023/06/17 01:38:50;;;;;;;13.90;10.27;;;;;;;;;;2055402;28;20042;-91
2023/06/17 01:39:56;;;;;;;19.00;11.30;;;;;;;;;;2055357;28;20122;-91
2023/06/17 01:41:06;;;;;;;17.35;10.77;;;;;;;;;;2055265;28;20424;-92
2023/06/17 01:42:13;;;;;;;15.32;10.95;;;;;;;;;;2055586;28;20030;-92
2023/06/17 01:43:16;;;;;;;16.77;10.90;;;;;;;;;;2053941;28;20038;-91
2023/06/17 01:44:18;;;;;;;18.33;11.40;;;;;;;;;;2063284;28;20022;-92
2023/06/17 01:45:20;;;;;;;15.88;10.43;;;;;;;;;;2057850;28;20016;-92
2023/06/17 01:46:21;;;;;;;18.20;10.68;;;;;;;;;;2065362;28;20023;-91
2023/06/17 01:47:21;;;;;;;15.45;10.82;;;;;;;;;;1710851;28;10261903;-91
2023/06/17 01:48:22;;;;;;;16.52;10.95;;;;;;;;;;2057065;28;20033;-92
2023/06/17 01:49:23;;;;;;;18.33;11.43;;;;;;;;;;2058131;28;20049;-92
2023/06/17 01:50:24;;;;;;;17.80;12.35;;;;;;;;;;2064096;28;20011;-90
2023/06/17 01:51:25;;;;;;;21.63;11.68;;;;;;;;;;2060852;28;20113;-92
2023/06/17 01:52:26;;;;;;;19.42;11.95;;;;;;;;;;2047145;29;20563;-91
2023/06/17 01:53:27;;;;;;;18.58;11.20;;;;;;;;;;2039389;29;20028;-91
2023/06/17 01:54:27;;;;;;;17.70;10.88;;;;;;;;;;2039383;29;20031;-92
2023/06/17 01:55:28;;;;;;;17.35;11.48;;;;;;;;;;2047415;29;20042;-92
2023/06/17 01:56:28;;;;;;;18.98;11.32;;;;;;;;;;2047170;29;20046;-92
2023/06/17 01:57:29;;;;;;;20.05;11.13;;;;;;;;;;2055206;28;20026;-90
2023/06/17 01:58:29;;;;;;;14.63;10.63;;;;;;;;;;2055532;28;20078;-91
2023/06/17 01:59:30;;;;;;;16.83;11.80;;;;;;;;;;2057294;28;20015;-92
2023/06/17 02:00:30;;;;;;;16.42;11.70;;;;;;;;;;2057138;28;20026;-93
2023/06/17 02:01:31;;;;;;;19.00;11.73;;;;;;;;;;2062846;28;20109;-92
2023/06/17 02:02:35;;;;;;;22.45;11.88;;;;;;;;;;2057910;28;20026;-93
2023/06/17 02:03:38;;;;;;;18.17;10.82;;;;;;;;;;2064674;28;20137;-92
2023/06/17 02:04:38;;;;;;;24.17;12.23;;;;;;;;;;2067449;28;20007;-92
2023/06/17 02:05:39;;;;;;;18.92;11.85;;;;;;;;;;2067591;28;20148;-92
2023/06/17 02:06:39;;;;;;;15.20;10.98;;;;;;;;;;2063701;28;20070;-93
2023/06/17 02:07:40;;;;;;;20.95;11.68;;;;;;;;;;2058741;28;20027;-92
2023/06/17 02:08:42;;;;;;;15.07;11.23;;;;;;;;;;2056797;28;20467;-91
2023/06/17 02:09:42;;;;;;;20.52;11.13;;;;;;;;;;2057327;28;20212;-93
2023/06/17 02:10:43;;;;;;;19.35;10.80;;;;;;;;;;2056920;28;20107;-93
2023/06/17 02:11:43;;;;;;;19.48;10.90;;;;;;;;;;2057103;28;20046;-93
2023/06/17 02:12:43;;;;;;;18.33;11.35;;;;;;;;;;2056975;28;20029;-91
2023/06/17 02:13:44;;;;;;;16.58;11.23;;;;;;;;;;2048879;29;20519;-92
2023/06/17 02:14:45;;;;;;;17.48;11.13;;;;;;;;;;2056921;28;20019;-93
2023/06/17 02:15:45;;;;;;;16.88;10.23;;;;;;;;;;2057878;28;20050;-93
2023/06/17 02:16:46;;;;;;;16.58;11.63;;;;;;;;;;2057973;28;20077;-94
2023/06/17 02:17:47;;;;;;;22.92;12.07;;;;;;;;;;2057864;28;20490;-93
2023/06/17 02:18:48;;;;;;;17.10;11.50;;;;;;;;;;2057059;28;20050;-93
2023/06/17 02:19:49;;;;;;;19.58;10.90;;;;;;;;;;2049273;29;20109;-93
2023/06/17 02:20:49;;;;;;;17.58;11.50;;;;;;;;;;2056947;28;20026;-92
2023/06/17 02:21:50;;;;;;;19.30;11.32;;;;;;;;;;2056963;28;20038;-93
2023/06/17 02:22:50;;;;;;;18.90;11.77;;;;;;;;;;2057006;28;20073;-92
2023/06/17 02:23:51;;;;;;;16.63;11.63;;;;;;;;;;2059053;28;20029;-93
2023/06/17 02:24:51;;;;;;;16.83;11.40;;;;;;;;;;2057613;28;20027;-93
2023/06/17 02:25:54;;;;;;;16.35;11.25;;;;;;;;;;2049285;29;20031;-92
2023/06/17 02:26:55;;;;;;;17.73;11.20;;;;;;;;;;2050169;28;20130;-93
2023/06/17 02:27:55;;;;;;;18.50;11.23;;;;;;;;;;2057007;28;20053;-92
2023/06/17 02:28:56;;;;;;;18.98;11.80;;;;;;;;;;2057646;28;20026;-92
2023/06/17 02:29:56;;;;;;;19.13;11.88;;;;;;;;;;2056928;28;20022;-92
2023/06/17 02:30:57;;;;;;;15.00;10.25;;;;;;;;;;2049046;29;20455;-92
2023/06/17 02:31:57;;;;;;;17.77;10.95;;;;;;;;;;2048510;29;20477;-91
2023/06/17 02:33:00;;;;;;;17.02;11.10;;;;;;;;;;2048775;29;20127;-92
2023/06/17 02:34:04;;;;;;;16.80;11.15;;;;;;;;;;2049421;28;20505;-91
2023/06/17 02:35:05;;;;;;;15.43;10.77;;;;;;;;;;2049234;28;20023;-90
2023/06/17 02:36:05;;;;;;;19.60;11.45;;;;;;;;;;2056847;28;20134;-91
2023/06/17 02:37:07;;;;;;;17.52;11.27;;;;;;;;;;2057007;28;20041;-92
2023/06/17 02:38:07;;;;;;;15.43;10.65;;;;;;;;;;2060137;28;20018;-92
2023/06/17 02:39:10;;;;;;;15.02;11.07;;;;;;;;;;2065812;28;20019;-92
2023/06/17 02:40:11;;;;;;;16.25;10.70;;;;;;;;;;2063005;28;20054;-91
2023/06/17 02:41:11;;;;;;;18.92;10.55;;;;;;;;;;2048784;29;20070;-92
2023/06/17 02:42:12;;;;;;;16.55;10.27;;;;;;;;;;2056909;28;20656;-92
2023/06/17 02:43:14;;;;;;;17.15;10.85;;;;;;;;;;2057053;28;20027;-92
2023/06/17 02:44:15;;;;;;;15.20;10.85;;;;;;;;;;2057039;28;20109;-92
2023/06/17 02:45:15;;;;;;;17.88;10.77;;;;;;;;;;2056624;28;20077;-92
2023/06/17 02:46:16;;;;;;;22.00;11.38;;;;;;;;;;2056894;28;20101;-92
2023/06/17 02:47:16;;;;;;;14.48;10.35;;;;;;;;;;2056698;28;20033;-92
2023/06/17 02:48:17;;;;;;;13.80;10.48;;;;;;;;;;2057026;28;20137;-91
2023/06/17 02:49:17;;;;;;;20.45;10.88;;;;;;;;;;2057670;28;20034;-92
2023/06/17 02:50:23;;;;;;;17.98;10.93;;;;;;;;;;2057134;28;20247;-92
2023/06/17 02:51:23;;;;;;;14.20;11.25;;;;;;;;;;2049583;28;20038;-92
2023/06/17 02:52:24;;;;;;;16.20;10.48;;;;;;;;;;2049230;29;20023;-92
2023/06/17 02:53:25;;;;;;;17.83;11.18;;;;;;;;;;2056630;28;20466;-92
2023/06/17 02:54:26;;;;;;;21.52;11.57;;;;;;;;;;2057469;28;20207;-92
2023/06/17 02:55:27;;;;;;;16.33;10.85;;;;;;;;;;2057492;28;20176;-93
2023/06/17 02:56:27;;;;;;;18.55;10.77;;;;;;;;;;2051195;28;20034;-93
2023/06/17 02:57:28;;;;;;;17.02;11.65;;;;;;;;;;679252;28;10001215;-92
2023/06/17 02:58:31;;;;;;;18.20;11.00;;;;;;;;;;2056604;28;20093;-93
2023/06/17 02:59:33;;;;;;;16.85;10.57;;;;;;;;;;2056704;28;20037;-93
2023/06/17 03:00:33;;;;;;;21.48;11.43;;;;;;;;;;2056783;28;20089;-92
2023/06/17 03:01:39;;;;;;;16.13;10.80;;;;;;;;;;2057486;28;20487;-92
2023/06/17 03:02:39;;;;;;;16.30;10.73;;;;;;;;;;2057131;28;20113;-93
2023/06/17 03:03:41;;;;;;;18.63;10.52;;;;;;;;;;2049632;29;20506;-93
2023/06/17 03:04:42;;;;;;;16.80;11.27;;;;;;;;;;2057558;28;20475;-92
2023/06/17 03:05:45;;;;;;;16.52;11.10;;;;;;;;;;2049040;29;20023;-93
2023/06/17 03:06:45;;;;;;;17.20;11.40;;;;;;;;;;2049952;28;20451;-93
2023/06/17 03:07:46;;;;;;;17.67;11.57;;;;;;;;;;2049279;29;20126;-91
2023/06/17 03:08:47;;;;;;;15.23;11.50;;;;;;;;;;2058464;28;20031;-92
2023/06/17 03:09:48;;;;;;;17.83;11.88;;;;;;;;;;2056804;28;20027;-92
2023/06/17 03:10:48;;;;;;;17.33;11.38;;;;;;;;;;2056958;28;20130;-93
2023/06/17 03:11:49;;;;;;;20.52;12.70;;;;;;;;;;2057725;28;20162;-93
2023/06/17 03:12:49;;;;;;;17.58;12.68;;;;;;;;;;2056474;28;20027;-93
2023/06/17 03:15:35;;;;;;;19.05;11.65;;;;;;;;;;2018234;28;20044;-92
2023/06/17 03:16:38;;;;;;;18.35;12.40;;;;;;;;;;2056932;28;20043;-91
2023/06/17 03:17:38;;;;;;;23.00;12.75;;;;;;;;;;2056498;28;20026;-93
2023/06/17 03:18:44;;;;;;;20.55;12.27;;;;;;;;;;2056489;28;20045;-92
2023/06/17 03:19:46;;;;;;;19.67;11.77;;;;;;;;;;1695753;28;10534966;-93
2023/06/17 03:20:49;;;;;;;22.80;12.93;;;;;;;;;;2056212;28;20061;-93
2023/06/17 03:21:50;;;;;;;16.17;11.60;;;;;;;;;;2056518;28;20041;-92
2023/06/17 03:22:51;;;;;;;17.80;12.77;;;;;;;;;;2048371;28;20023;-92
2023/06/17 03:23:51;;;;;;;17.08;11.82;;;;;;;;;;2056721;28;20038;-92
2023/06/17 03:24:52;;;;;;;19.67;12.38;;;;;;;;;;2056519;28;20030;-93
2023/06/17 03:25:52;;;;;;;16.13;12.00;;;;;;;;;;2048431;29;20039;-92
2023/06/17 03:26:53;;;;;;;17.10;13.38;;;;;;;;;;2049399;28;20054;-93
2023/06/17 03:27:53;;;;;;;18.10;12.15;;;;;;;;;;2061409;28;20030;-89
2023/06/17 03:28:54;;;;;;;16.10;12.20;;;;;;;;;;2063754;28;20026;-93
2023/06/17 03:29:55;;;;;;;19.67;11.50;;;;;;;;;;2057275;28;20054;-92
2023/06/17 03:30:56;;;;;;;18.83;13.07;;;;;;;;;;2057208;28;20022;-93
2023/06/17 03:31:58;;;;;;;21.40;12.85;;;;;;;;;;2057262;28;20023;-92
2023/06/17 03:33:00;;;;;;;19.58;11.82;;;;;;;;;;2057914;28;20125;-93
2023/06/17 03:34:00;;;;;;;18.05;10.80;;;;;;;;;;2048334;28;20041;-93
2023/06/17 03:35:04;;;;;;;13.90;10.95;;;;;;;;;;2048355;29;20031;-92
2023/06/17 03:36:06;;;;;;;16.13;10.73;;;;;;;;;;2055983;28;20491;-92
2023/06/17 03:37:06;;;;;;;18.30;11.05;;;;;;;;;;2048591;28;20114;-93
2023/06/17 03:38:08;;;;;;;16.75;11.13;;;;;;;;;;2048459;29;20078;-92
2023/06/17 03:39:09;;;;;;;18.77;11.60;;;;;;;;;;2056601;28;20027;-92
2023/06/17 03:40:10;;;;;;;19.80;11.65;;;;;;;;;;2048390;29;20033;-92
2023/06/17 03:41:12;;;;;;;15.10;10.65;;;;;;;;;;2048450;29;20078;-92
2023/06/17 03:42:16;;;;;;;17.00;10.82;;;;;;;;;;2048468;28;20338;-91
2023/06/17 03:43:17;;;;;;;17.10;10.18;;;;;;;;;;2056312;28;20082;-92
2023/06/17 03:44:17;;;;;;;18.58;11.05;;;;;;;;;;2056290;28;20478;-92
2023/06/17 03:45:18;;;;;;;14.70;10.10;;;;;;;;;;2056349;28;20117;-92
2023/06/17 03:46:19;;;;;;;19.83;10.52;;;;;;;;;;2056091;28;20027;-93
2023/06/17 03:47:20;;;;;;;15.57;10.65;;;;;;;;;;2057145;28;20045;-92
2023/06/17 03:48:20;;;;;;;12.55;9.63;;;;;;;;;;2056071;28;20545;-93
2023/06/17 03:49:20;;;;;;;18.00;10.18;;;;;;;;;;2056226;28;20054;-92
2023/06/17 03:50:21;;;;;;;19.30;10.23;;;;;;;;;;2056251;28;20026;-92
2023/06/17 03:51:21;;;;;;;15.13;9.85;;;;;;;;;;2056286;28;20031;-92
2023/06/17 03:52:22;;;;;;;15.93;9.68;;;;;;;;;;1705178;28;10222116;-91
2023/06/17 03:53:22;;;;;;;15.20;10.20;;;;;;;;;;2056331;28;20031;-92
2023/06/17 03:54:23;;;;;;;17.05;9.73;;;;;;;;;;2056447;28;20375;-92
2023/06/17 03:55:24;;;;;;;15.32;10.52;;;;;;;;;;2056354;28;20030;-92
2023/06/17 03:56:26;;;;;;;20.38;11.55;;;;;;;;;;2055811;28;20507;-91
2023/06/17 03:57:27;;;;;;;15.50;11.13;;;;;;;;;;2056060;28;20165;-91
2023/06/17 03:58:28;;;;;;;19.83;11.10;;;;;;;;;;2048487;29;20015;-92
2023/06/17 03:59:28;;;;;;;17.27;10.65;;;;;;;;;;2056236;28;20029;-92
2023/06/17 04:00:29;;;;;;;15.93;10.32;;;;;;;;;;2055966;28;20049;-91
2023/06/17 04:01:30;;;;;;;15.52;9.85;;;;;;;;;;2055885;28;20085;-91
2023/06/17 04:02:30;;;;;;;16.15;10.43;;;;;;;;;;2047774;28;20019;-92
2023/06/17 04:03:31;;;;;;;15.93;10.00;;;;;;;;;;2055985;28;20022;-91
2023/06/17 04:04:34;;;;;;;20.08;10.23;;;;;;;;;;2055758;28;20015;-92
2023/06/17 04:05:35;;;;;;;16.60;9.82;;;;;;;;;;2055845;28;20077;-91
2023/06/17 04:06:36;;;;;;;16.15;9.35;;;;;;;;;;2048174;28;20030;-92
2023/06/17 04:07:38;;;;;;;16.65;10.10;;;;;;;;;;2048043;29;20015;-91
2023/06/17 04:08:43;;;;;;;15.02;9.05;;;;;;;;;;2048628;28;20067;-92
2023/06/17 04:09:43;;;;;;;14.65;10.10;;;;;;;;;;2048923;28;20565;-92
2023/06/17 04:10:47;;;;;;;16.70;10.23;;;;;;;;;;2048383;28;20024;-91
2023/06/17 04:11:47;;;;;;;12.40;8.68;;;;;;;;;;1691829;28;10480942;-92
2023/06/17 04:12:47;;;;;;;13.77;8.52;;;;;;;;;;2065194;28;20023;-92
2023/06/17 04:13:48;;;;;;;11.98;8.77;;;;;;;;;;2065792;28;20041;-92
2023/06/17 04:14:48;;;;;;;16.05;8.60;;;;;;;;;;2057129;28;20069;-92
2023/06/17 04:15:51;;;;;;;14.10;8.98;;;;;;;;;;2064272;28;20062;-91
2023/06/17 04:16:51;;;;;;;14.05;8.50;;;;;;;;;;2066863;28;20121;-91
2023/06/17 04:17:57;;;;;;;10.55;8.18;;;;;;;;;;2061990;28;20031;-92
2023/06/17 04:19:01;;;;;;;13.90;8.50;;;;;;;;;;2056716;28;20248;-92
2023/06/17 04:20:10;;;;;;;16.20;8.70;;;;;;;;;;2057066;28;20175;-92
2023/06/17 04:21:10;;;;;;;13.40;8.63;;;;;;;;;;2059112;28;20055;-91
2023/06/17 04:22:10;;;;;;;11.77;8.65;;;;;;;;;;2056292;28;20480;-91
2023/06/17 04:23:11;;;;;;;10.25;8.65;;;;;;;;;;2056668;28;20027;-92
2023/06/17 04:24:12;;;;;;;11.18;8.75;;;;;;;;;;2056728;28;20030;-92
2023/06/17 04:25:20;;;;;;;13.95;9.00;;;;;;;;;;2055869;28;20564;-92
2023/06/17 04:26:22;;;;;;;14.95;8.10;;;;;;;;;;2056587;28;20481;-93
2023/06/17 04:27:23;;;;;;;10.55;8.52;;;;;;;;;;2056030;28;20045;-91
2023/06/17 04:28:31;;;;;;;15.55;8.18;;;;;;;;;;2048406;29;20419;-91
2023/06/17 04:29:34;;;;;;;13.13;9.07;;;;;;;;;;2056415;28;20074;-90
2023/06/17 04:30:35;;;;;;;14.57;8.52;;;;;;;;;;2061659;28;20023;-92
2023/06/17 04:31:40;;;;;;;13.35;7.75;;;;;;;;;;2066603;28;20027;-90
2023/06/17 04:32:42;;;;;;;11.90;7.40;;;;;;;;;;2066740;28;20050;-91
2023/06/17 04:33:43;;;;;;;18.02;8.30;;;;;;;;;;2066551;28;20022;-90
2023/06/17 04:34:47;;;;;;;12.25;8.65;;;;;;;;;;2066640;28;20010;-91
2023/06/17 04:35:49;;;;;;;15.15;8.43;;;;;;;;;;2063062;28;20109;-91
2023/06/17 04:36:56;;;;;;;12.77;8.05;;;;;;;;;;2048790;28;20034;-90
2023/06/17 04:37:57;;;;;;;11.70;7.93;;;;;;;;;;2056097;28;20026;-91
2023/06/17 04:38:58;;;;;;;12.73;8.00;;;;;;;;;;2056254;28;20110;-90
2023/06/17 04:39:59;;;;;;;12.20;8.25;;;;;;;;;;2056310;28;20556;-91
2023/06/17 04:40:59;;;;;;;;;;;;;;;;;;1695804;29;10318109;-91
2023/06/17 04:42:00;;;;;;;13.55;8.27;;;;;;;;;;2056164;28;19917;-91
2023/06/17 04:43:01;;;;;;;13.05;8.07;;;;;;;;;;2055843;28;20402;-92
2023/06/17 04:44:01;;;;;;;11.27;7.80;;;;;;;;;;2056333;28;20023;-91
2023/06/17 04:45:02;;;;;;;12.00;7.97;;;;;;;;;;2056225;28;20031;-91
2023/06/17 04:46:03;;;;;;;13.77;8.68;;;;;;;;;;2055898;28;20259;-91
2023/06/17 04:47:09;;;;;;;11.27;8.45;;;;;;;;;;2055769;28;20068;-91
2023/06/17 04:48:10;;;;;;;12.35;8.38;;;;;;;;;;2058803;28;20026;-91
2023/06/17 04:49:10;;;;;;;13.80;8.57;;;;;;;;;;2055687;28;20105;-91
2023/06/17 04:50:15;;;;;;;10.20;8.07;;;;;;;;;;2047794;29;20109;-91
2023/06/17 04:51:17;;;;;;;10.07;7.38;;;;;;;;;;2048344;28;20031;-90
2023/06/17 04:52:24;;;;;;;8.93;7.20;;;;;;;;;;2055806;28;20031;-91
2023/06/17 04:53:26;;;;;;;13.02;8.10;;;;;;;;;;2056049;28;20031;-91
2023/06/17 04:54:28;;;;;;;13.07;8.00;;;;;;;;;;2048042;28;20087;-90
2023/06/17 04:55:30;;;;;;;11.63;7.57;;;;;;;;;;2055621;28;20513;-91
2023/06/17 04:56:31;;;;;;;10.02;7.45;;;;;;;;;;2047893;28;20106;-91
2023/06/17 04:57:31;;;;;;;11.00;7.70;;;;;;;;;;2047764;28;20090;-93
2023/06/17 05:00:48;;;;;;;11.90;7.40;;;;;;;;;;2056613;28;20438;-90
2023/06/17 05:01:48;;;;;;;10.57;7.78;;;;;;;;;;2056097;28;20035;-92
2023/06/17 05:02:49;;;;;;;10.25;7.40;;;;;;;;;;2055879;28;20034;-92
2023/06/17 05:03:53;;;;;;;17.10;8.70;;;;;;;;;;2048577;29;20038;-91
2023/06/17 05:04:57;;;;;;;13.90;8.25;;;;;;;;;;2049904;28;20059;-92
2023/06/17 05:05:57;;;;;;;12.15;8.50;;;;;;;;;;2060873;28;20093;-90
2023/06/17 05:07:00;;;;;;;14.48;8.10;;;;;;;;;;2058619;28;20023;-91
2023/06/17 05:08:01;;;;;;;14.52;7.65;;;;;;;;;;2057037;28;20030;-91
2023/06/17 05:09:02;;;;;;;12.65;8.10;;;;;;;;;;2057324;28;20595;-92
2023/06/17 05:10:04;;;;;;;14.70;7.95;;;;;;;;;;2055945;28;20172;-91
2023/06/17 05:11:04;;;;;;;8.54;7.34;;;;;;;;;;1694414;28;10367422;-91
2023/06/17 05:12:05;;;;;;;10.80;7.70;;;;;;;;;;2048093;29;20027;-91
2023/06/17 05:13:06;;;;;;;11.02;8.40;;;;;;;;;;2055631;28;20491;-92
2023/06/17 05:14:13;;;;;;;12.77;8.23;;;;;;;;;;2059807;28;20082;-91
2023/06/17 05:15:17;;;;;;;15.90;8.02;;;;;;;;;;2056028;28;20133;-91
2023/06/17 05:16:35;;;;;;;10.13;7.57;;;;;;;;;;2054908;28;20019;-92
2023/06/17 05:17:36;;;;;;;12.52;9.52;;;;;;;;;;2056313;28;20149;-92
2023/06/17 05:18:42;;;;;;;13.88;8.15;;;;;;;;;;2056124;28;20022;-91
2023/06/17 05:19:46;;;;;;;14.00;8.32;;;;;;;;;;2056574;28;20470;-92
2023/06/17 05:20:46;;;;;;;10.85;7.88;;;;;;;;;;2056577;28;20506;-92
2023/06/17 05:21:47;;;;;;;13.98;8.57;;;;;;;;;;2056551;28;20035;-91
2023/06/17 05:22:47;;;;;;;14.07;8.57;;;;;;;;;;2056148;28;20141;-91
2023/06/17 05:23:48;;;;;;;11.05;8.68;;;;;;;;;;2056571;28;20105;-92
2023/06/17 05:24:48;;;;;;;12.40;8.52;;;;;;;;;;2056837;28;20109;-91
2023/06/17 05:25:49;;;;;;;11.43;8.77;;;;;;;;;;2056635;28;20041;-92
2023/06/17 05:26:49;;;;;;;14.63;8.05;;;;;;;;;;2056530;28;20050;-92
2023/06/17 05:27:50;;;;;;;12.35;8.77;;;;;;;;;;2056965;28;20336;-93
2023/06/17 05:28:50;;;;;;;14.15;9.45;;;;;;;;;;2056159;28;20050;-91
2023/06/17 05:29:52;;;;;;;16.42;8.57;;;;;;;;;;2056325;28;20027;-92
2023/06/17 05:30:53;;;;;;;13.82;8.95;;;;;;;;;;2056448;28;20113;-89
2023/06/17 05:31:54;;;;;;;14.73;9.02;;;;;;;;;;2057327;28;20034;-92
2023/06/17 05:32:54;;;;;;;13.65;9.30;;;;;;;;;;2057393;28;20034;-92
2023/06/17 05:33:55;;;;;;;12.02;8.50;;;;;;;;;;2055780;28;20027;-92
2023/06/17 05:34:55;;;;;;;12.88;8.75;;;;;;;;;;2056654;28;20049;-91
2023/06/17 05:36:00;;;;;;;12.35;8.95;;;;;;;;;;2056410;28;20093;-92
2023/06/17 05:37:00;;;;;;;14.35;8.55;;;;;;;;;;2055680;28;20050;-92
2023/06/17 05:38:01;;;;;;;10.57;8.30;;;;;;;;;;2055646;28;20019;-91
2023/06/17 05:39:01;;;;;;;11.07;7.55;;;;;;;;;;2055688;28;20046;-92
2023/06/17 05:40:03;;;;;;;11.90;7.60;;;;;;;;;;2055580;28;20455;-92
2023/06/17 05:41:03;;;;;;;12.45;8.48;;;;;;;;;;2055539;28;20218;-92
2023/06/17 05:42:04;;;;;;;11.65;8.18;;;;;;;;;;2055795;28;20533;-93
2023/06/17 05:43:04;;;;;;;14.60;8.02;;;;;;;;;;2055582;28;20022;-92
2023/06/17 05:44:05;;;;;;;12.93;8.60;;;;;;;;;;2055800;28;20038;-92
2023/06/17 05:45:06;;;;;;;18.13;8.88;;;;;;;;;;2056653;28;20110;-92
2023/06/17 05:46:07;;;;;;;11.48;8.05;;;;;;;;;;2055569;28;20026;-92
2023/06/17 05:47:07;;;;;;;30.15;13.88;;;;;;;;;;2056091;28;20089;-92
2023/06/17 05:48:10;;;;;;;25.77;16.83;;;;;;;;;;1702120;28;10304864;-92
2023/06/17 05:49:16;;;;;;;18.95;10.90;;;;;;;;;;2065101;28;20011;-92
2023/06/17 05:50:20;;;;;;;20.45;11.90;;;;;;;;;;2056768;28;20113;-92
2023/06/17 05:51:21;;;;;;;18.58;11.07;;;;;;;;;;2055188;28;20605;-91
2023/06/17 05:52:21;;;;;;;10.93;8.40;;;;;;;;;;2055600;28;20054;-92
2023/06/17 05:53:27;;;;;;;21.38;14.25;;;;;;;;;;1704549;28;10280305;-91
2023/06/17 05:54:27;;;;;;;12.57;8.27;;;;;;;;;;2062115;28;20018;-90
2023/06/17 05:55:28;;;;;;;10.90;8.05;;;;;;;;;;2050694;29;20110;-92
2023/06/17 05:57:27;;;;;;;;;;;;;;;;;;;;;
2023/06/17 05:58:48;;;;;;;;;;;;;;;;;;;;;
2023/06/17 06:00:15;;;;;;;10.82;8.07;;;;;;;;;;2056210;28;20027;-92
2023/06/17 06:01:16;;;;;;;14.52;8.25;;;;;;;;;;2055739;28;20031;-91
2023/06/17 06:02:17;;;;;;;13.45;8.98;;;;;;;;;;2047252;28;20027;-91
2023/06/17 06:03:20;;;;;;;13.43;8.35;;;;;;;;;;2047668;29;20031;-94
2023/06/17 06:04:21;;;;;;;13.38;8.65;;;;;;;;;;2048499;28;20114;-91
2023/06/17 06:05:22;;;;;;;13.65;8.05;;;;;;;;;;2056037;28;20447;-94
2023/06/17 06:06:23;;;;;;;11.95;8.00;;;;;;;;;;2055765;28;20529;-92
2023/06/17 06:07:25;;;;;;;;;;;;;;;;;;1712851;28;10001715;-93
2023/06/17 06:08:25;;;;;;;12.30;8.13;;;;;;;;;;2056781;28;20341;-92